Time,TemperatureF,DewpointF,PressureIn,WindDirection,WindDirectionDegrees,WindSpeedMPH,WindSpeedGustMPH,Humidity,HourlyPrecipIn,Conditions,Clouds,dailyrainin,SoftwareType,DateUTC
2013-07-05 00:02:00,64.4,59.2,30.14,WNW,293,0.0,3.0,83,0.00,,,0.00,meteohub,2013-07-04 22:02:00,
2013-07-05 00:17:00,64.4,59.2,30.14,SW,225,2.0,3.0,83,0.00,,,0.00,meteohub,2013-07-04 22:17:00,
2013-07-05 00:32:00,64.2,59.0,30.15,West,270,2.0,3.0,83,0.00,,,0.00,meteohub,2013-07-04 22:32:00,
2013-07-05 00:47:00,63.7,58.5,30.15,SSE,158,1.0,3.0,83,0.00,,,0.00,meteohub,2013-07-04 22:47:00,
2013-07-05 01:02:00,63.5,58.6,30.15,West,270,3.0,3.0,84,0.00,,,0.00,meteohub,2013-07-04 23:02:00,
2013-07-05 01:17:00,63.1,58.3,30.15,South,180,3.0,3.0,84,0.00,,,0.00,meteohub,2013-07-04 23:17:00,
2013-07-05 01:32:00,63.3,58.8,30.15,SW,225,0.0,3.0,85,0.00,,,0.00,meteohub,2013-07-04 23:32:00,
2013-07-05 01:47:00,63.1,58.3,30.16,SSW,203,3.0,3.0,84,0.00,,,0.00,meteohub,2013-07-04 23:47:00,
2013-07-05 02:02:00,63.0,58.1,30.16,SSW,203,4.0,4.0,84,0.00,,,0.00,meteohub,2013-07-05 00:02:00,
2013-07-05 02:17:00,63.0,58.1,30.17,SW,225,4.0,4.0,84,0.00,,,0.00,meteohub,2013-07-05 00:17:00,
2013-07-05 02:32:00,62.8,57.9,30.17,West,270,2.0,4.0,84,0.00,,,0.00,meteohub,2013-07-05 00:32:00,
2013-07-05 02:47:00,62.8,58.3,30.17,West,270,0.0,2.0,85,0.00,,,0.00,meteohub,2013-07-05 00:47:00,
2013-07-05 03:02:00,62.8,58.3,30.18,SW,225,0.0,2.0,85,0.00,,,0.00,meteohub,2013-07-05 01:02:00,
2013-07-05 03:17:00,62.6,58.1,30.18,WSW,248,2.0,2.0,85,0.00,,,0.00,meteohub,2013-07-05 01:17:00,
2013-07-05 03:32:00,62.4,57.9,30.18,WSW,248,0.0,2.0,85,0.00,,,0.00,meteohub,2013-07-05 01:32:00,
2013-07-05 03:47:00,62.4,57.9,30.18,SSE,158,5.0,5.0,85,0.00,,,0.00,meteohub,2013-07-05 01:47:00,
2013-07-05 04:02:00,62.4,58.1,30.18,West,270,2.0,5.0,86,0.00,,,0.00,meteohub,2013-07-05 02:02:00,
2013-07-05 04:17:00,62.4,58.1,30.18,South,180,2.0,3.0,86,0.00,,,0.00,meteohub,2013-07-05 02:17:00,
2013-07-05 04:32:00,62.2,57.9,30.18,West,270,0.0,2.0,86,0.00,,,0.00,meteohub,2013-07-05 02:32:00,
2013-07-05 04:47:00,61.9,57.4,30.19,SSE,158,0.0,3.0,85,0.00,,,0.00,meteohub,2013-07-05 02:47:00,
2013-07-05 05:02:00,62.1,57.7,30.19,SW,225,1.0,4.0,86,0.00,,,0.00,meteohub,2013-07-05 03:02:00,
2013-07-05 05:17:00,61.7,57.4,30.19,SW,225,0.0,4.0,86,0.00,,,0.00,meteohub,2013-07-05 03:17:00,
2013-07-05 05:32:00,61.7,57.4,30.20,WSW,248,0.0,4.0,86,0.00,,,0.00,meteohub,2013-07-05 03:32:00,
2013-07-05 05:47:00,61.5,57.4,30.21,SW,225,0.0,4.0,86,0.00,,,0.00,meteohub,2013-07-05 03:47:00,
2013-07-05 06:02:00,61.5,57.4,30.21,SW,225,2.0,3.0,86,0.00,,,0.00,meteohub,2013-07-05 04:02:00,
2013-07-05 06:17:00,61.5,57.4,30.21,SSW,203,4.0,4.0,86,0.00,,,0.00,meteohub,2013-07-05 04:17:00,
2013-07-05 06:32:00,61.3,57.2,30.22,SE,135,1.0,4.0,86,0.00,,,0.00,meteohub,2013-07-05 04:32:00,
2013-07-05 06:47:00,61.5,57.4,30.23,WSW,248,0.0,4.0,86,0.00,,,0.00,meteohub,2013-07-05 04:47:00,
2013-07-05 07:02:00,61.7,57.4,30.22,WSW,248,0.0,2.0,86,0.00,,,0.00,meteohub,2013-07-05 05:02:00,
2013-07-05 07:17:00,61.5,57.4,30.22,WSW,248,2.0,2.0,86,0.00,,,0.00,meteohub,2013-07-05 05:17:00,
2013-07-05 07:32:00,61.7,57.2,30.26,SW,225,0.0,4.0,85,0.00,,,0.00,meteohub,2013-07-05 05:32:00,
2013-07-05 07:47:00,61.7,57.2,30.36,SSW,203,2.0,2.0,85,0.00,,,0.00,meteohub,2013-07-05 05:47:00,
2013-07-05 08:02:00,61.9,57.4,30.36,WSW,248,0.0,2.0,85,0.00,,,0.00,meteohub,2013-07-05 06:02:00,
2013-07-05 08:17:00,62.8,57.9,30.36,SSE,158,3.0,3.0,84,0.00,,,0.00,meteohub,2013-07-05 06:17:00,
2013-07-05 08:32:00,63.3,58.5,30.40,WSW,248,1.0,4.0,84,0.00,,,0.00,meteohub,2013-07-05 06:32:00,
2013-07-05 08:47:00,63.9,58.6,30.43,South,180,0.0,2.0,83,0.00,,,0.00,meteohub,2013-07-05 06:47:00,
2013-07-05 09:02:00,65.3,59.7,30.43,West,270,0.0,4.0,82,0.00,,,0.00,meteohub,2013-07-05 07:02:00,
2013-07-05 09:17:00,67.3,60.3,30.43,WSW,248,0.0,2.0,78,0.00,,,0.00,meteohub,2013-07-05 07:17:00,
2013-07-05 09:32:00,69.4,61.2,30.44,WSW,248,2.0,4.0,75,0.00,,,0.00,meteohub,2013-07-05 07:32:00,
2013-07-05 09:47:00,72.9,62.4,30.44,SW,225,2.0,2.0,70,0.00,,,0.00,meteohub,2013-07-05 07:47:00,
2013-07-05 10:02:00,74.3,62.6,30.43,WSW,248,2.0,3.0,67,0.00,,,0.00,meteohub,2013-07-05 08:02:00,
2013-07-05 10:17:00,76.5,63.3,30.44,SW,225,2.0,2.0,64,0.00,,,0.00,meteohub,2013-07-05 08:17:00,
2013-07-05 10:32:00,78.4,63.9,30.44,WSW,248,2.0,2.0,61,0.00,,,0.00,meteohub,2013-07-05 08:32:00,
2013-07-05 10:47:00,80.1,63.0,30.44,SE,135,2.0,4.0,56,0.00,,,0.00,meteohub,2013-07-05 08:47:00,
2013-07-05 11:02:00,81.5,63.9,30.44,South,180,0.0,3.0,55,0.00,,,0.00,meteohub,2013-07-05 09:02:00,
2013-07-05 11:20:00,83.1,63.7,30.44,SW,225,2.0,2.0,52,0.00,,,0.00,meteohub,2013-07-05 09:20:00,
2013-07-05 11:32:00,84.6,63.3,30.45,SSE,158,3.0,3.0,49,0.00,,,0.00,meteohub,2013-07-05 09:32:00,
2013-07-05 11:47:00,85.5,64.0,30.45,SW,225,3.0,4.0,49,0.00,,,0.00,meteohub,2013-07-05 09:47:00,
2013-07-05 12:02:00,87.1,63.9,30.45,SW,225,3.0,4.0,46,0.00,,,0.00,meteohub,2013-07-05 10:02:00,
2013-07-05 12:17:00,87.6,64.2,30.46,SW,225,2.0,3.0,46,0.00,,,0.00,meteohub,2013-07-05 10:17:00,
2013-07-05 12:32:00,89.8,63.7,30.46,South,180,3.0,3.0,42,0.00,,,0.00,meteohub,2013-07-05 10:32:00,
2013-07-05 12:47:00,90.5,63.0,30.46,WSW,248,2.0,3.0,40,0.00,,,0.00,meteohub,2013-07-05 10:47:00,
2013-07-05 13:05:00,91.6,63.1,30.46,WSW,248,5.0,5.0,39,0.00,,,0.00,meteohub,2013-07-05 11:05:00,
2013-07-05 13:23:00,93.0,62.1,30.46,WSW,248,4.0,5.0,36,0.00,,,0.00,meteohub,2013-07-05 11:23:00,
2013-07-05 13:32:00,91.2,60.6,30.46,SW,225,2.0,4.0,36,0.00,,,0.00,meteohub,2013-07-05 11:32:00,
2013-07-05 13:47:00,92.1,60.4,30.48,SW,225,2.0,4.0,35,0.00,,,0.00,meteohub,2013-07-05 11:47:00,
2013-07-05 14:02:00,91.9,59.5,30.47,SSW,203,3.0,5.0,34,0.00,,,0.00,meteohub,2013-07-05 12:02:00,
2013-07-05 14:20:00,90.7,57.6,30.48,SW,225,2.0,3.0,33,0.00,,,0.00,meteohub,2013-07-05 12:20:00,
2013-07-05 14:32:00,93.2,59.9,30.48,South,180,3.0,4.0,33,0.00,,,0.00,meteohub,2013-07-05 12:32:00,
2013-07-05 14:47:00,92.1,57.2,30.48,WSW,248,3.0,4.0,31,0.00,,,0.00,meteohub,2013-07-05 12:47:00,
2013-07-05 15:02:00,91.4,57.4,30.47,SE,135,0.0,5.0,32,0.00,,,0.00,meteohub,2013-07-05 13:02:00,
2013-07-05 15:17:00,92.5,58.3,30.47,WSW,248,3.0,4.0,32,0.00,,,0.00,meteohub,2013-07-05 13:17:00,
2013-07-05 15:32:00,93.0,57.9,30.48,SW,225,3.0,3.0,31,0.00,,,0.00,meteohub,2013-07-05 13:32:00,
2013-07-05 15:48:00,92.1,58.1,30.48,West,270,2.0,3.0,32,0.00,,,0.00,meteohub,2013-07-05 13:48:00,
2013-07-05 16:02:00,93.0,58.8,30.48,WSW,248,4.0,4.0,32,0.00,,,0.00,meteohub,2013-07-05 14:02:00,
2013-07-05 16:17:00,92.3,59.9,30.48,SSW,203,3.0,7.0,34,0.00,,,0.00,meteohub,2013-07-05 14:17:00,
2013-07-05 16:32:00,90.9,58.6,30.48,WSW,248,3.0,3.0,34,0.00,,,0.00,meteohub,2013-07-05 14:32:00,
2013-07-05 16:50:00,90.7,56.8,30.48,NW,315,3.0,4.0,32,0.00,,,0.00,meteohub,2013-07-05 14:50:00,
2013-07-05 17:02:00,91.6,60.1,30.48,SSE,158,2.0,3.0,35,0.00,,,0.00,meteohub,2013-07-05 15:02:00,
2013-07-05 17:17:00,90.3,59.7,30.48,SSE,158,3.0,4.0,36,0.00,,,0.00,meteohub,2013-07-05 15:17:00,
2013-07-05 17:32:00,88.7,58.3,30.48,SW,225,2.0,4.0,36,0.00,,,0.00,meteohub,2013-07-05 15:32:00,
2013-07-05 17:47:00,88.0,57.7,30.48,SSW,203,3.0,4.0,36,0.00,,,0.00,meteohub,2013-07-05 15:47:00,
2013-07-05 18:02:00,86.5,57.9,30.48,South,180,2.0,5.0,38,0.00,,,0.00,meteohub,2013-07-05 16:02:00,
2013-07-05 18:17:00,85.1,58.1,30.48,WSW,248,3.0,4.0,40,0.00,,,0.00,meteohub,2013-07-05 16:17:00,
2013-07-05 18:32:00,79.3,57.4,30.48,South,180,4.0,4.0,47,0.00,,,0.00,meteohub,2013-07-05 16:32:00,
2013-07-05 18:47:00,75.6,56.7,30.48,West,270,2.0,4.0,52,0.00,,,0.00,meteohub,2013-07-05 16:47:00,
2013-07-05 19:02:00,74.7,57.4,30.48,NNW,338,2.0,3.0,55,0.00,,,0.00,meteohub,2013-07-05 17:02:00,
2013-07-05 19:17:00,73.6,56.8,30.48,South,180,2.0,2.0,56,0.00,,,0.00,meteohub,2013-07-05 17:17:00,
2013-07-05 19:32:00,77.7,58.6,30.48,ENE,68,0.0,4.0,52,0.00,,,0.00,meteohub,2013-07-05 17:32:00,
2013-07-05 19:47:00,79.0,59.4,30.48,WSW,248,2.0,2.0,51,0.00,,,0.00,meteohub,2013-07-05 17:47:00,
2013-07-05 20:02:00,77.9,58.8,30.48,SSW,203,2.0,4.0,52,0.00,,,0.00,meteohub,2013-07-05 18:02:00,
2013-07-05 20:17:00,76.1,57.7,30.48,NE,45,3.0,3.0,53,0.00,,,0.00,meteohub,2013-07-05 18:17:00,
2013-07-05 20:32:00,72.9,56.7,30.48,SW,225,0.0,3.0,57,0.00,,,0.00,meteohub,2013-07-05 18:32:00,
2013-07-05 20:47:00,70.7,56.7,30.48,WNW,293,0.0,2.0,61,0.00,,,0.00,meteohub,2013-07-05 18:47:00,
2013-07-05 21:02:00,69.4,56.3,30.48,West,270,0.0,2.0,63,0.00,,,0.00,meteohub,2013-07-05 19:02:00,
2013-07-05 21:17:00,68.4,56.5,30.48,SE,135,0.0,2.0,66,0.00,,,0.00,meteohub,2013-07-05 19:17:00,
2013-07-05 21:32:00,67.6,56.3,30.49,South,180,0.0,0.0,67,0.00,,,0.00,meteohub,2013-07-05 19:32:00,
2013-07-05 21:47:00,66.7,56.3,30.49,SW,225,0.0,0.0,69,0.00,,,0.00,meteohub,2013-07-05 19:47:00,
2013-07-05 22:02:00,66.4,55.9,30.45,SSE,158,0.0,0.0,69,0.00,,,0.00,meteohub,2013-07-05 20:02:00,
2013-07-05 22:17:00,65.5,55.4,30.45,SE,135,0.0,0.0,70,0.00,,,0.00,meteohub,2013-07-05 20:17:00,
2013-07-05 22:32:00,65.3,55.6,30.37,NE,45,0.0,0.0,71,0.00,,,0.00,meteohub,2013-07-05 20:32:00,
2013-07-05 22:47:00,64.4,55.2,30.35,NNE,23,0.0,0.0,72,0.00,,,0.00,meteohub,2013-07-05 20:47:00,
2013-07-05 23:02:00,63.9,55.0,30.35,WSW,248,0.0,0.0,73,0.00,,,0.00,meteohub,2013-07-05 21:02:00,
2013-07-05 23:17:00,63.5,54.7,30.34,South,180,0.0,0.0,73,0.00,,,0.00,meteohub,2013-07-05 21:17:00,
2013-07-05 23:32:00,63.1,54.7,30.34,SE,135,0.0,0.0,74,0.00,,,0.00,meteohub,2013-07-05 21:32:00,
2013-07-05 23:47:00,62.8,54.7,30.34,South,180,0.0,0.0,75,0.00,,,0.00,meteohub,2013-07-05 21:47:00,